KBIV

West Michigan Regional Airport

Holland, Michigan, USA
METAR KBIV 181353Z AUTO VRB03KT 10SM CLR 22/18 A3003 RMK AO2 SLP164 T02170178
Observed Flight Rules
Aug-18 @ 13:53 UTC (60 minutes ago) Visual Flight Rules
Wind Visibility Clouds
Variable at 3 knots 10 miles
  • Clear skies
Temperatures Readings
Current 22°C / 72°F
Dewpoint 18°C / 64°F
Humidity 78%
Altimeter 30.03" Hg
Pressure 1016.4 hPa
Elevation 208
METAR KBIV 181353Z AUTO VRB03KT 10SM CLR 22/18 A3003 RMK AO2 SLP164 T02170178
Observed Flight Rules
Aug-18 @ 13:53 UTC
(60 minutes ago)
VFR
Wind Visibility
Variable at 3 knots 10 miles
Clouds
  • Clear skies
Temperature Dewpoint
22°C / 72°F 18°C / 64°F
Humidity Altimeter Pressure
78% 30.03" Hg 1016.4 hPa